Time;durP1;ratioP1;P1;durP2;ratioP2;P2;SDS_P1;SDS_P2;PMS_P1;PMS_P2;Temp;Humidity;BMP_temperature;BMP_pressure;BME280_temperature;BME280_humidity;BME280_pressure;Samples;Min_cycle;Max_cycle;Signal;HPM_P1;HPM_P2
2021/05/10 00:03:31;;;;;;;2.50;1.25;;;19.90;99.40;;;;;;12211622;28;20075;-82
2021/05/10 00:09:32;;;;;;;2.90;1.48;;;19.90;99.40;;;;;;12202028;28;20185;-82
2021/05/10 00:15:34;;;;;;;2.13;0.90;;;19.70;99.90;;;;;;12201322;29;20068;-82
2021/05/10 00:21:36;;;;;;;6.28;1.30;;;19.70;99.80;;;;;;12201102;28;20129;-82
2021/05/10 00:27:37;;;;;;;2.88;1.10;;;19.70;99.90;;;;;;12217357;29;20119;-82
2021/05/10 00:33:38;;;;;;;2.78;1.20;;;19.60;99.90;;;;;;12205739;28;20127;-82
2021/05/10 00:39:40;;;;;;;7.55;1.05;;;19.60;99.90;;;;;;12201614;28;20135;-82
2021/05/10 00:45:41;;;;;;;2.75;1.13;;;19.70;99.90;;;;;;12203382;28;20079;-82
2021/05/10 00:51:42;;;;;;;5.55;1.10;;;19.70;99.90;;;;;;12198036;28;20123;-82
2021/05/10 00:57:50;;;;;;;4.55;1.30;;;19.60;99.90;;;;;;12171046;28;20060;-82
2021/05/10 01:03:54;;;;;;;5.68;1.38;;;19.60;99.90;;;;;;12198946;28;20713;-82
2021/05/10 01:09:55;;;;;;;4.72;1.20;;;19.40;99.90;;;;;;12198816;29;20579;-82
2021/05/10 01:15:57;;;;;;;4.18;0.98;;;19.40;99.90;;;;;;12210901;28;20477;-82
2021/05/10 01:21:59;;;;;;;6.75;1.20;;;19.20;99.90;;;;;;12203768;28;20099;-82
2021/05/10 01:28:01;;;;;;;4.90;1.33;;;19.10;99.90;;;;;;12202623;28;20307;-83
2021/05/10 01:34:03;;;;;;;4.47;1.15;;;19.10;99.90;;;;;;12205559;28;20135;-81
2021/05/10 01:40:07;;;;;;;5.13;1.45;;;19.10;99.90;;;;;;12194352;28;20835;-82
2021/05/10 01:46:08;;;;;;;;;;;19.00;99.90;;;;;;12203058;28;20091;-82
2021/05/10 01:52:09;;;;;;;6.10;1.25;;;18.80;99.90;;;;;;12196817;28;20454;-82
2021/05/10 01:58:11;;;;;;;4.70;1.27;;;18.80;99.90;;;;;;12200116;28;20044;-82
2021/05/10 02:04:12;;;;;;;3.75;1.25;;;18.80;99.90;;;;;;12203564;29;20087;-81
2021/05/10 02:10:32;;;;;;;4.78;1.45;;;18.70;99.90;;;;;;12199754;29;20079;-82
2021/05/10 02:16:33;;;;;;;2.20;1.20;;;18.70;99.90;;;;;;12204998;29;20509;-82
2021/05/10 02:22:35;;;;;;;3.75;1.45;;;18.70;99.90;;;;;;12208834;29;20048;-82
2021/05/10 02:28:38;;;;;;;6.22;1.10;;;18.80;99.90;;;;;;12207817;29;20421;-82
2021/05/10 02:34:39;;;;;;;2.55;1.10;;;18.90;99.90;;;;;;12207890;29;20079;-82
2021/05/10 02:40:41;;;;;;;4.80;1.48;;;18.90;99.90;;;;;;12214580;28;20072;-83
2021/05/10 02:46:42;;;;;;;2.97;0.90;;;18.90;99.90;;;;;;12261549;28;20202;-82
2021/05/10 02:52:44;;;;;;;4.15;1.30;;;19.00;99.90;;;;;;12223113;28;20092;-82
2021/05/10 02:58:45;;;;;;;5.82;1.60;;;18.90;99.90;;;;;;12204873;28;20079;-82
2021/05/10 03:04:47;;;;;;;2.90;1.42;;;19.00;99.90;;;;;;12209548;28;20076;-82
2021/05/10 03:10:48;;;;;;;4.32;1.70;;;18.90;99.90;;;;;;12214613;28;20570;-82
2021/05/10 03:16:50;;;;;;;7.70;1.33;;;18.90;99.90;;;;;;12208386;28;20091;-82
2021/05/10 03:22:52;;;;;;;8.77;1.70;;;18.80;99.90;;;;;;12225664;28;20059;-82
2021/05/10 03:28:54;;;;;;;3.17;1.15;;;18.80;99.90;;;;;;12212037;28;20511;-82
2021/05/10 03:34:55;;;;;;;3.50;1.10;;;19.00;99.90;;;;;;12225781;28;20506;-82
2021/05/10 03:40:56;;;;;;;2.47;1.10;;;18.80;99.90;;;;;;12213770;28;20574;-82
2021/05/10 03:46:58;;;;;;;4.50;1.38;;;18.80;99.90;;;;;;12213760;28;20623;-81
2021/05/10 03:52:59;;;;;;;3.90;1.10;;;18.70;99.90;;;;;;12208377;28;21547;-82
2021/05/10 03:59:01;;;;;;;4.70;1.25;;;18.60;99.90;;;;;;12205697;28;20539;-82
2021/05/10 04:05:14;;;;;;;6.28;1.23;;;18.70;99.90;;;;;;12207408;28;20500;-83
2021/05/10 04:13:34;;;;;;;3.90;1.48;;;18.80;99.90;;;;;;12194430;28;20136;-82
2021/05/10 04:17:42;;;;;;;5.50;1.27;;;18.80;99.90;;;;;;12207586;28;20513;-83
2021/05/10 04:23:44;;;;;;;3.58;1.42;;;18.80;99.90;;;;;;12206847;28;20408;-82
2021/05/10 04:29:45;;;;;;;7.28;1.50;;;18.80;99.90;;;;;;12218949;28;20059;-82
2021/05/10 04:35:47;;;;;;;4.25;1.50;;;18.90;99.90;;;;;;12211365;28;20056;-81
2021/05/10 04:41:48;;;;;;;2.17;1.08;;;18.80;99.90;;;;;;12206200;28;20040;-81
2021/05/10 04:47:49;;;;;;;2.05;1.02;;;18.90;99.90;;;;;;12218610;28;20163;-82
2021/05/10 04:53:51;;;;;;;3.95;1.20;;;19.00;99.90;;;;;;12220814;28;20102;-81
2021/05/10 04:59:52;;;;;;;2.45;1.00;;;19.00;99.90;;;;;;12217420;28;20086;-83
2021/05/10 05:05:53;;;;;;;3.40;1.02;;;19.00;99.90;;;;;;12222051;28;20067;-83
2021/05/10 05:11:55;;;;;;;3.22;1.25;;;19.00;99.90;;;;;;12232652;28;20135;-83
2021/05/10 05:17:56;;;;;;;3.22;1.48;;;19.00;99.90;;;;;;12231204;28;20431;-83
2021/05/10 05:23:57;;;;;;;3.08;1.30;;;18.90;99.90;;;;;;12211518;28;20423;-83
2021/05/10 05:29:59;;;;;;;7.88;1.25;;;19.10;99.90;;;;;;12219532;28;20156;-83
2021/05/10 05:36:00;;;;;;;3.25;1.30;;;19.40;99.90;;;;;;12220775;28;20056;-83
2021/05/10 05:42:02;;;;;;;4.80;1.33;;;19.70;99.90;;;;;;12221936;28;20428;-83
2021/05/10 05:48:04;;;;;;;2.45;1.30;;;19.60;99.90;;;;;;12221375;28;20051;-83
2021/05/10 05:54:07;;;;;;;4.80;1.50;;;19.90;99.90;;;;;;12222255;28;20126;-83
2021/05/10 06:00:09;;;;;;;2.63;1.10;;;19.80;99.90;;;;;;12219067;28;20063;-83
2021/05/10 06:06:11;;;;;;;5.03;1.50;;;19.70;99.90;;;;;;12227952;28;20056;-83
2021/05/10 06:12:12;;;;;;;3.33;1.30;;;19.60;99.90;;;;;;12223884;28;20047;-83
2021/05/10 06:18:14;;;;;;;2.42;1.20;;;19.80;99.90;;;;;;12214907;28;20059;-82
2021/05/10 06:24:16;;;;;;;4.70;1.30;;;19.90;99.90;;;;;;12214692;28;20056;-83
2021/05/10 06:30:17;;;;;;;3.55;1.35;;;20.10;99.90;;;;;;12210812;28;20052;-83
2021/05/10 06:36:19;;;;;;;4.85;1.30;;;20.20;99.90;;;;;;12223175;28;20048;-83
2021/05/10 06:42:20;;;;;;;3.58;1.40;;;20.40;99.90;;;;;;12208226;28;20147;-83
2021/05/10 06:48:33;;;;;;;4.15;1.40;;;20.70;99.90;;;;;;12209681;28;20921;-83
2021/05/10 06:54:35;;;;;;;5.60;1.30;;;21.00;99.90;;;;;;12201358;28;20056;-82
2021/05/10 07:00:37;;;;;;;3.65;1.35;;;21.00;99.90;;;;;;12229536;28;20059;-83
2021/05/10 07:06:42;;;;;;;4.53;1.50;;;21.20;99.90;;;;;;12252807;28;20578;-83
2021/05/10 07:12:43;;;;;;;5.55;1.30;;;21.00;99.90;;;;;;12229121;28;20037;-82
2021/05/10 07:18:44;;;;;;;3.58;1.20;;;20.80;99.90;;;;;;12309682;28;20224;-83
2021/05/10 07:24:46;;;;;;;6.72;1.65;;;20.70;99.90;;;;;;12224857;28;20048;-83
2021/05/10 07:30:48;;;;;;;3.67;1.25;;;20.60;99.90;;;;;;12220743;28;20475;-83
2021/05/10 07:36:49;;;;;;;2.95;1.48;;;20.50;99.90;;;;;;12216330;28;20155;-83
2021/05/10 07:42:51;;;;;;;2.85;1.50;;;20.40;99.90;;;;;;12214039;28;20047;-83
2021/05/10 07:48:53;;;;;;;5.97;1.50;;;20.40;99.90;;;;;;12206668;28;20146;-83
2021/05/10 07:54:54;;;;;;;6.07;1.75;;;20.50;99.90;;;;;;12203663;28;20143;-83
2021/05/10 08:01:00;;;;;;;4.15;1.40;;;20.40;99.90;;;;;;12205826;28;20044;-82
2021/05/10 08:07:01;;;;;;;4.22;1.38;;;20.40;99.90;;;;;;12208920;28;20139;-82
2021/05/10 08:13:03;;;;;;;2.03;1.17;;;20.80;99.90;;;;;;12210182;28;20083;-81
2021/05/10 08:19:05;;;;;;;7.68;1.67;;;21.10;99.90;;;;;;12207646;28;20802;-83
2021/05/10 08:25:07;;;;;;;7.07;1.70;;;21.10;99.90;;;;;;12204963;28;20045;-83
2021/05/10 08:31:09;;;;;;;4.53;1.30;;;21.30;99.90;;;;;;12211750;28;21972;-83
2021/05/10 08:37:10;;;;;;;5.50;1.70;;;21.40;99.90;;;;;;12212479;28;20076;-82
2021/05/10 08:43:23;;;;;;;4.75;1.45;;;21.30;99.90;;;;;;12207937;28;20560;-83
2021/05/10 08:49:24;;;;;;;6.43;1.67;;;21.20;99.90;;;;;;12203699;28;20047;-84
2021/05/10 08:55:26;;;;;;;3.95;1.48;;;21.70;99.90;;;;;;12224629;28;20052;-83
2021/05/10 09:01:46;;;;;;;3.22;1.30;;;22.30;99.90;;;;;;12202991;28;20083;-83
2021/05/10 09:08:08;;;;;;;5.63;1.25;;;22.80;99.90;;;;;;12214864;28;20146;-82
2021/05/10 09:14:09;;;;;;;3.03;1.02;;;22.70;99.90;;;;;;12200688;28;20064;-83
2021/05/10 09:20:33;;;;;;;7.63;1.38;;;23.10;99.90;;;;;;12208294;28;20048;-83
2021/05/10 09:26:35;;;;;;;6.13;1.52;;;23.30;99.90;;;;;;12204645;28;20518;-83
2021/05/10 09:32:37;;;;;;;3.13;1.30;;;23.30;99.90;;;;;;12199374;28;21057;-83
2021/05/10 09:38:39;;;;;;;2.53;1.00;;;23.40;99.90;;;;;;12212593;28;20554;-84
2021/05/10 09:44:47;;;;;;;3.92;1.33;;;23.20;99.90;;;;;;12213476;28;20686;-84
2021/05/10 09:50:59;;;;;;;4.72;1.35;;;23.50;99.90;;;;;;12209780;28;20593;-83
2021/05/10 09:57:04;;;;;;;2.65;1.30;;;23.80;99.90;;;;;;12211248;28;20102;-83
2021/05/10 10:03:21;;;;;;;4.25;1.20;;;24.20;99.90;;;;;;12217887;28;20845;-82
2021/05/10 10:09:23;;;;;;;2.90;1.10;;;24.50;99.90;;;;;;12209671;28;21028;-83
2021/05/10 10:15:25;;;;;;;3.63;1.20;;;25.10;99.90;;;;;;12214881;28;20790;-83
2021/05/10 10:21:27;;;;;;;3.70;1.20;;;25.20;99.90;;;;;;12206325;28;20067;-84
2021/05/10 10:27:30;;;;;;;3.35;1.20;;;24.80;99.90;;;;;;12215930;28;20060;-83
2021/05/10 10:33:38;;;;;;;4.22;1.23;;;24.90;99.90;;;;;;12210904;28;20048;-83
2021/05/10 10:39:56;;;;;;;4.22;1.05;;;25.00;99.90;;;;;;12206890;28;20536;-83
2021/05/10 10:46:19;;;;;;;3.42;0.80;;;24.90;99.90;;;;;;12216656;28;20127;-82
2021/05/10 10:52:23;;;;;;;2.67;1.10;;;24.70;99.90;;;;;;12213345;28;20051;-84
2021/05/10 10:58:24;;;;;;;3.25;1.10;;;24.60;99.90;;;;;;12265794;28;20056;-83
2021/05/10 11:04:29;;;;;;;4.57;1.10;;;24.70;99.90;;;;;;12230876;28;20062;-83
2021/05/10 11:10:46;;;;;;;4.38;1.00;;;25.00;99.90;;;;;;12222073;28;20055;-82
2021/05/10 11:16:55;;;;;;;2.35;0.85;;;24.70;99.90;;;;;;12204836;28;20117;-82
2021/05/10 11:23:25;;;;;;;5.63;0.90;;;24.60;99.90;;;;;;12207938;28;20492;-83
2021/05/10 11:29:27;;;;;;;4.00;0.85;;;24.40;99.90;;;;;;12210698;28;20142;-82
2021/05/10 11:35:29;;;;;;;5.65;1.00;;;24.10;99.90;;;;;;12219127;28;20090;-82
2021/05/10 11:41:39;;;;;;;4.88;1.20;;;24.60;99.90;;;;;;12204090;28;20146;-87
2021/05/10 11:47:46;;;;;;;9.88;1.48;;;24.50;99.90;;;;;;12211681;28;20475;-82
2021/05/10 11:54:03;;;;;;;2.90;0.98;;;24.20;99.90;;;;;;12214509;28;20052;-81
2021/05/10 12:00:13;;;;;;;4.80;1.10;;;23.30;99.90;;;;;;12211040;28;20055;-82
2021/05/10 12:06:31;;;;;;;5.47;1.40;;;22.90;99.90;;;;;;12210310;28;20045;-83
2021/05/10 12:12:34;;;;;;;3.55;1.20;;;23.10;99.90;;;;;;12226754;28;20351;-82
2021/05/10 12:18:36;;;;;;;6.70;1.27;;;23.30;99.90;;;;;;12205815;28;20056;-82
2021/05/10 12:24:54;;;;;;;5.50;1.55;;;23.40;99.90;;;;;;12204791;28;20118;-83
2021/05/10 12:30:57;;;;;;;6.32;0.88;;;23.70;99.90;;;;;;12210179;28;20080;-82
2021/05/10 12:36:58;;;;;;;3.80;0.80;;;24.10;99.90;;;;;;12212937;28;20079;-82
2021/05/10 12:43:16;;;;;;;3.65;0.90;;;24.20;99.90;;;;;;12205229;28;20052;-82
2021/05/10 12:49:24;;;;;;;5.82;0.88;;;24.10;99.90;;;;;;12217720;28;20133;-82
2021/05/10 12:55:25;;;;;;;1.10;0.60;;;23.00;99.90;;;;;;12212040;28;20048;-83
2021/05/10 13:01:29;;;;;;;4.05;0.70;;;23.00;99.90;;;;;;12222230;28;20151;-82
2021/05/10 13:07:47;;;;;;;4.82;0.60;;;23.30;99.90;;;;;;12202749;28;21194;-82
2021/05/10 13:13:59;;;;;;;3.55;0.60;;;23.60;99.90;;;;;;12205420;28;20363;-82
2021/05/10 13:32:39;;;;;;;2.15;0.70;;;23.70;99.90;;;;;;12208977;28;20816;-83
2021/05/10 13:38:41;;;;;;;1.23;0.60;;;23.30;99.90;;;;;;12177006;28;20775;-82
2021/05/10 13:44:42;;;;;;;5.05;0.73;;;23.90;99.90;;;;;;12209462;28;20143;-83
2021/05/10 13:50:44;;;;;;;1.63;0.45;;;24.10;99.90;;;;;;12205518;28;20056;-81
2021/05/10 13:56:48;;;;;;;2.53;1.05;;;23.80;99.90;;;;;;12202015;28;20492;-83
2021/05/10 14:02:53;;;;;;;1.30;0.70;;;23.10;99.90;;;;;;12210596;28;20052;-83
2021/05/10 14:08:54;;;;;;;3.53;0.70;;;22.40;99.90;;;;;;12214756;28;20394;-82
2021/05/10 14:14:56;;;;;;;2.25;0.77;;;22.40;99.90;;;;;;12228910;28;20665;-83
2021/05/10 14:27:19;;;;;;;3.38;0.50;;;22.10;99.90;;;;;;12226693;28;20063;-82
2021/05/10 14:33:21;;;;;;;1.92;0.90;;;22.30;99.90;;;;;;12253143;28;20047;-83
2021/05/10 14:39:23;;;;;;;2.75;0.90;;;21.80;99.90;;;;;;12217539;28;20097;-83
2021/05/10 14:45:24;;;;;;;5.65;0.95;;;22.70;99.90;;;;;;12211208;28;20147;-81
2021/05/10 14:51:25;;;;;;;3.50;0.60;;;23.30;99.90;;;;;;12210578;28;20076;-82
2021/05/10 14:57:29;;;;;;;1.55;0.60;;;23.30;99.90;;;;;;12206878;28;20089;-82
2021/05/10 15:03:31;;;;;;;2.47;0.70;;;23.00;99.90;;;;;;12219806;28;20075;-82
2021/05/10 15:09:33;;;;;;;3.15;0.60;;;22.50;99.90;;;;;;12208579;28;20075;-82
2021/05/10 15:15:35;;;;;;;2.27;0.60;;;22.10;99.90;;;;;;12204726;28;20052;-82
2021/05/10 15:21:36;;;;;;;2.28;0.50;;;22.10;99.90;;;;;;12192682;28;20052;-82
2021/05/10 15:27:38;;;;;;;2.22;0.65;;;22.10;99.90;;;;;;12166083;29;20060;-81
2021/05/10 15:33:40;;;;;;;2.15;0.68;;;22.20;99.90;;;;;;12152783;28;20064;-82
2021/05/10 15:39:42;;;;;;;1.52;0.70;;;22.30;99.90;;;;;;12144401;28;20466;-82
2021/05/10 15:45:44;;;;;;;3.00;0.80;;;22.20;99.90;;;;;;12197874;29;20111;-82
2021/05/10 15:51:46;;;;;;;1.77;0.77;;;21.70;99.90;;;;;;12198876;28;20059;-81
2021/05/10 15:57:49;;;;;;;1.30;0.70;;;22.00;99.90;;;;;;12206473;28;20055;-82
2021/05/10 16:03:50;;;;;;;1.98;0.88;;;22.00;99.90;;;;;;12206931;28;20052;-82
2021/05/10 16:09:52;;;;;;;1.98;0.90;;;21.80;99.90;;;;;;12206511;28;20052;-83
2021/05/10 16:15:53;;;;;;;2.63;1.10;;;21.40;99.90;;;;;;12213152;28;20048;-81
2021/05/10 16:21:55;;;;;;;1.52;0.77;;;21.50;99.90;;;;;;12209546;29;20071;-83
2021/05/10 16:28:00;;;;;;;2.53;0.80;;;21.40;99.90;;;;;;12207255;28;20099;-82
2021/05/10 16:34:02;;;;;;;7.07;1.10;;;21.30;99.90;;;;;;12207371;28;20048;-82
2021/05/10 16:40:05;;;;;;;4.88;1.30;;;21.30;99.90;;;;;;12206598;29;20044;-82
2021/05/10 16:46:06;;;;;;;6.65;1.40;;;21.10;99.90;;;;;;12209267;28;20072;-82
2021/05/10 16:52:08;;;;;;;3.05;1.00;;;20.70;99.90;;;;;;12207979;28;20056;-82
2021/05/10 16:58:10;;;;;;;2.50;0.90;;;20.50;99.90;;;;;;12171251;28;20048;-82
2021/05/10 17:04:11;;;;;;;3.40;0.90;;;20.70;99.90;;;;;;12201692;28;20059;-82
2021/05/10 17:10:12;;;;;;;3.05;1.10;;;20.70;99.90;;;;;;12209688;28;20452;-82
2021/05/10 17:16:17;;;;;;;3.75;1.38;;;20.70;99.90;;;;;;12208296;28;20500;-82
2021/05/10 17:22:19;;;;;;;3.85;1.10;;;20.50;99.90;;;;;;12210900;28;21074;-82
2021/05/10 17:28:20;;;;;;;2.25;1.30;;;20.50;99.90;;;;;;12211568;28;20518;-82
2021/05/10 17:34:22;;;;;;;2.83;1.52;;;20.30;99.90;;;;;;12208339;28;20540;-81
2021/05/10 17:40:23;;;;;;;3.85;1.63;;;20.40;99.90;;;;;;12204214;29;20070;-81
2021/05/10 17:46:24;;;;;;;3.50;1.55;;;20.10;99.90;;;;;;12208846;29;20060;-82
2021/05/10 17:52:26;;;;;;;5.00;1.40;;;19.90;99.90;;;;;;12208553;29;20071;-81
2021/05/10 17:58:27;;;;;;;5.47;1.63;;;19.90;99.90;;;;;;12200846;28;20560;-81
2021/05/10 18:04:29;;;;;;;4.75;1.70;;;19.80;99.90;;;;;;12200223;28;20033;-81
2021/05/10 18:10:31;;;;;;;3.60;1.33;;;19.80;99.90;;;;;;12209679;28;20056;-81
2021/05/10 18:16:36;;;;;;;4.57;1.73;;;19.70;99.90;;;;;;12197894;28;20056;-81
2021/05/10 18:22:39;;;;;;;4.38;1.85;;;19.60;99.90;;;;;;12204778;28;20075;-81
2021/05/10 18:28:41;;;;;;;3.58;1.92;;;19.40;99.90;;;;;;12201764;28;20087;-81
2021/05/10 18:34:42;;;;;;;4.18;1.73;;;19.00;99.90;;;;;;12202471;28;20068;-81
2021/05/10 18:40:44;;;;;;;6.57;1.70;;;18.80;99.90;;;;;;12196905;28;20132;-81
2021/05/10 18:46:46;;;;;;;3.20;1.60;;;18.60;99.90;;;;;;12211683;28;20608;-82
2021/05/10 18:52:47;;;;;;;4.82;1.73;;;18.70;99.90;;;;;;12204695;28;20072;-82
2021/05/10 18:58:48;;;;;;;5.38;1.88;;;18.50;99.90;;;;;;12208272;28;20056;-81
2021/05/10 19:04:50;;;;;;;8.25;3.63;;;18.50;99.90;;;;;;12219314;28;20044;-81
2021/05/10 19:10:54;;;;;;;9.25;4.38;;;18.40;99.90;;;;;;12217762;28;20093;-81
2021/05/10 19:16:57;;;;;;;7.47;2.50;;;18.20;99.90;;;;;;12209951;28;20048;-81
2021/05/10 19:22:59;;;;;;;6.00;2.38;;;18.00;99.90;;;;;;12212517;28;20143;-80
2021/05/10 19:29:00;;;;;;;5.82;3.10;;;18.10;99.90;;;;;;12217651;28;20453;-80
2021/05/10 19:35:02;;;;;;;5.22;2.50;;;18.20;99.90;;;;;;12207472;28;20052;-80
2021/05/10 19:41:04;;;;;;;3.95;2.40;;;18.00;99.90;;;;;;12209861;28;20048;-80
2021/05/10 19:47:14;;;;;;;6.75;2.60;;;17.70;99.90;;;;;;12211530;28;20386;-80
2021/05/10 20:05:55;;;;;;;4.40;2.90;;;16.90;99.90;;;;;;12211347;28;20067;-80
2021/05/10 20:11:56;;;;;;;5.00;3.08;;;16.50;99.90;;;;;;12290739;28;20135;-80
2021/05/10 20:17:58;;;;;;;5.75;2.80;;;16.40;99.90;;;;;;12214143;28;20514;-80
2021/05/10 20:23:59;;;;;;;8.50;3.10;;;16.40;99.90;;;;;;12212601;28;20163;-79
2021/05/10 20:30:00;;;;;;;5.07;3.15;;;16.60;99.90;;;;;;12208302;28;20182;-80
2021/05/10 20:36:03;;;;;;;4.65;3.40;;;16.90;99.90;;;;;;12214892;28;20128;-80
2021/05/10 20:42:04;;;;;;;6.45;3.47;;;16.60;99.90;;;;;;12211687;28;20071;-79
2021/05/10 20:48:07;;;;;;;6.40;3.15;;;16.80;99.90;;;;;;12207848;28;20047;-80
2021/05/10 20:54:09;;;;;;;4.80;3.80;;;16.90;99.90;;;;;;12205497;28;20428;-80
2021/05/10 21:00:11;;;;;;;6.07;3.58;;;16.50;99.90;;;;;;12204489;28;20130;-80
2021/05/10 21:06:12;;;;;;;6.78;4.13;;;16.40;99.90;;;;;;12201822;28;20052;-80
2021/05/10 21:12:15;;;;;;;6.95;4.05;;;16.40;99.90;;;;;;12202206;28;20079;-80
2021/05/10 21:18:16;;;;;;;6.70;4.25;;;16.30;99.90;;;;;;12209818;28;20047;-80
2021/05/10 21:24:18;;;;;;;8.02;5.03;;;16.40;99.90;;;;;;12207459;28;20052;-80
2021/05/10 21:30:19;;;;;;;6.97;4.85;;;16.10;99.90;;;;;;12206614;28;20487;-80
2021/05/10 21:36:21;;;;;;;7.57;5.65;;;16.20;99.90;;;;;;12207317;28;22606;-80
2021/05/10 21:42:22;;;;;;;6.80;4.85;;;16.20;99.90;;;;;;12208735;28;20044;-80
2021/05/10 21:48:30;;;;;;;6.97;5.00;;;16.40;99.90;;;;;;12220286;28;20095;-80
2021/05/10 21:54:31;;;;;;;8.52;5.35;;;16.10;99.90;;;;;;12246344;28;20048;-80
2021/05/10 22:00:36;;;;;;;6.68;5.22;;;16.00;99.90;;;;;;12242407;28;20051;-81
2021/05/10 22:06:37;;;;;;;9.82;7.15;;;15.60;99.90;;;;;;12222281;28;20052;-80
2021/05/10 22:12:38;;;;;;;11.38;8.43;;;15.40;99.90;;;;;;12207500;28;20752;-80
2021/05/10 22:18:41;;;;;;;12.60;7.90;;;15.40;99.90;;;;;;12209572;28;20147;-80
2021/05/10 22:24:51;;;;;;;11.60;9.13;;;15.40;99.90;;;;;;12203768;28;20052;-80
2021/05/10 22:30:53;;;;;;;10.18;7.53;;;15.30;99.90;;;;;;12199448;28;20049;-79
2021/05/10 22:36:59;;;;;;;9.30;7.38;;;15.30;99.90;;;;;;12220392;28;20083;-79
2021/05/10 22:43:14;;;;;;;7.15;6.38;;;15.50;99.90;;;;;;12217153;28;20044;-79
2021/05/10 23:07:56;;;;;;;10.40;7.38;;;15.00;99.90;;;;;;12207064;28;20040;-79
2021/05/10 23:20:01;;;;;;;9.27;7.65;;;14.90;99.90;;;;;;12202761;28;20087;-79
2021/05/10 23:26:03;;;;;;;11.70;9.35;;;14.90;99.90;;;;;;12209189;28;20105;-79
2021/05/10 23:32:05;;;;;;;13.48;9.93;;;14.90;99.90;;;;;;12206241;28;20048;-79
2021/05/10 23:38:06;;;;;;;13.68;9.02;;;14.70;99.90;;;;;;12289601;28;20079;-80
2021/05/10 23:44:07;;;;;;;11.18;10.07;;;14.90;99.90;;;;;;12209750;28;20578;-80
2021/05/10 23:50:09;;;;;;;15.27;11.23;;;14.60;99.90;;;;;;12208255;28;20040;-80
2021/05/10 23:56:10;;;;;;;15.30;11.88;;;14.70;99.90;;;;;;12200151;28;20094;-79
